createdAt,value
2018-05-03T00:01:54.910Z,8.57
2018-05-03T00:07:58.352Z,7.23
2018-05-03T00:14:02.473Z,6.10
2018-05-03T00:20:05.884Z,5.80
2018-05-03T00:26:10.002Z,8.67
2018-05-03T00:32:13.475Z,7.50
2018-05-03T00:38:17.004Z,6.47
2018-05-03T00:44:20.397Z,6.53
2018-05-03T00:50:24.572Z,7.77
2018-05-03T00:56:28.098Z,4.93
2018-05-03T01:02:31.472Z,5.73
2018-05-03T01:08:35.597Z,8.77
2018-05-03T01:14:38.983Z,5.20
2018-05-03T01:20:43.237Z,5.53
2018-05-03T01:26:46.614Z,9.00
2018-05-03T01:32:49.977Z,6.27
2018-05-03T01:38:53.470Z,5.30
2018-05-03T01:44:56.955Z,6.23
2018-05-03T01:51:01.120Z,4.47
2018-05-03T01:57:05.301Z,5.93
2018-05-03T02:03:08.825Z,5.90
2018-05-03T02:09:13.005Z,5.67
2018-05-03T02:15:17.236Z,4.83
2018-05-03T02:21:20.711Z,5.13
2018-05-03T02:27:24.230Z,6.37
2018-05-03T02:33:27.717Z,6.67
2018-05-03T02:39:31.883Z,6.30
2018-05-03T02:45:36.071Z,6.07
2018-05-03T02:51:39.601Z,5.70
2018-05-03T02:58:06.503Z,7.70
2018-05-03T03:04:33.414Z,8.07
2018-05-03T03:17:48.731Z,6.20
2018-05-03T03:24:15.783Z,6.20
2018-05-03T03:30:43.507Z,6.03
2018-05-03T03:37:16.430Z,7.93
2018-05-03T03:43:37.808Z,5.03
2018-05-03T03:49:42.073Z,5.13
2018-05-03T03:55:45.607Z,5.47
2018-05-03T04:01:49.100Z,6.70
2018-05-03T04:07:52.632Z,6.37
2018-05-03T04:13:56.867Z,5.60
2018-05-03T04:20:18.167Z,5.40
2018-05-03T04:26:21.648Z,7.23
2018-05-03T04:32:25.089Z,8.67
2018-05-03T04:38:28.623Z,9.50
2018-05-03T04:44:32.807Z,7.20
2018-05-03T04:50:37.032Z,7.20
2018-05-03T04:56:40.422Z,10.10
2018-05-03T05:02:44.596Z,8.37
2018-05-03T05:08:48.125Z,7.83
2018-05-03T05:14:52.293Z,8.33
2018-05-03T05:20:56.401Z,8.47
2018-05-03T05:26:59.966Z,8.00
2018-05-03T05:33:04.077Z,8.90
2018-05-03T05:39:07.449Z,8.07
2018-05-03T05:45:10.943Z,9.27
2018-05-03T05:51:15.250Z,8.70
2018-05-03T05:57:18.683Z,17.13
2018-05-03T06:03:22.121Z,12.60
2018-05-03T06:09:25.648Z,14.63
2018-05-03T06:15:29.944Z,29.60
2018-05-03T06:21:33.472Z,20.10
2018-05-03T06:27:37.594Z,30.57
2018-05-03T06:33:41.007Z,30.63
2018-05-03T06:39:44.385Z,32.30
2018-05-03T06:45:47.797Z,31.33
2018-05-03T06:51:52.160Z,26.77
2018-05-03T06:57:56.384Z,23.80
2018-05-03T07:03:59.857Z,23.67
2018-05-03T07:10:03.448Z,24.67
2018-05-03T07:16:07.617Z,19.23
2018-05-03T07:22:11.044Z,20.20
2018-05-03T07:28:15.226Z,17.90
2018-05-03T07:34:19.401Z,16.57
2018-05-03T07:40:23.749Z,17.47
2018-05-03T07:46:28.046Z,14.73
2018-05-03T07:52:31.580Z,14.03
2018-05-03T07:58:35.148Z,12.50
2018-05-03T08:04:38.675Z,13.97
2018-05-03T08:10:42.862Z,13.90
2018-05-03T08:16:47.112Z,107.07
2018-05-03T08:22:51.309Z,113.40
2018-05-03T08:28:54.753Z,79.93
2018-05-03T08:34:58.285Z,42.77
2018-05-03T08:41:01.757Z,19.53
2018-05-03T08:47:05.182Z,15.47
2018-05-03T08:53:08.552Z,9.17
2018-05-03T08:59:12.082Z,23.50
2018-05-03T09:05:15.551Z,22.90
2018-05-03T09:11:19.718Z,22.73
2018-05-03T09:17:24.008Z,21.13
2018-05-03T09:23:27.524Z,15.03
2018-05-03T09:29:31.175Z,10.20
2018-05-03T09:35:34.645Z,7.33
2018-05-03T09:41:38.790Z,7.17
2018-05-03T09:47:42.315Z,6.53
2018-05-03T09:53:45.714Z,8.73
2018-05-03T09:59:49.167Z,13.17
2018-05-03T10:05:52.603Z,8.20
2018-05-03T10:11:56.128Z,7.10
2018-05-03T10:17:59.566Z,11.57
2018-05-03T10:24:03.016Z,7.93
2018-05-03T10:30:07.269Z,60.20
2018-05-03T10:36:11.486Z,122.47
2018-05-03T10:42:14.972Z,62.47
2018-05-03T10:48:18.346Z,44.37
2018-05-03T10:54:22.463Z,20.60
2018-05-03T11:00:25.870Z,23.77
2018-05-03T11:06:29.396Z,13.83
2018-05-03T11:12:32.932Z,9.57
2018-05-03T11:18:36.418Z,22.23
2018-05-03T11:24:40.673Z,84.00
2018-05-03T11:30:44.857Z,45.77
2018-05-03T11:36:49.154Z,26.93
2018-05-03T11:42:52.521Z,16.23
2018-05-03T11:48:56.006Z,14.07
2018-05-03T11:54:59.460Z,9.53
2018-05-03T12:01:02.834Z,5.80
2018-05-03T12:07:06.362Z,4.93
2018-05-03T12:13:10.637Z,4.27
2018-05-03T12:19:14.798Z,3.37
2018-05-03T12:25:18.978Z,3.57
2018-05-03T12:31:23.234Z,3.70
2018-05-03T12:37:27.509Z,2.67
2018-05-03T12:43:31.777Z,3.87
2018-05-03T12:49:35.939Z,2.07
2018-05-03T12:55:39.497Z,3.30
2018-05-03T13:01:43.676Z,3.87
2018-05-03T13:07:47.844Z,2.00
2018-05-03T13:13:52.011Z,2.43
2018-05-03T13:19:56.250Z,1.63
2018-05-03T13:25:59.824Z,4.57
2018-05-03T13:32:04.098Z,2.33
2018-05-03T13:38:08.356Z,4.43
2018-05-03T13:44:11.830Z,9.10
2018-05-03T13:50:15.274Z,5.53
2018-05-03T13:56:19.442Z,5.80
2018-05-03T14:02:23.611Z,30.30
2018-05-03T14:08:27.061Z,54.27
2018-05-03T14:14:30.597Z,70.37
2018-05-03T14:20:34.746Z,74.93
2018-05-03T14:26:38.306Z,81.90
2018-05-03T14:32:41.867Z,92.47
2018-05-03T14:38:46.135Z,95.10
2018-05-03T14:44:50.291Z,97.57
2018-05-03T14:50:53.964Z,97.30
2018-05-03T14:56:58.278Z,92.80
2018-05-03T15:03:01.770Z,92.17
2018-05-03T15:09:06.098Z,96.27
2018-05-03T15:15:09.577Z,114.03
2018-05-03T15:21:13.074Z,126.03
2018-05-03T15:27:16.484Z,128.40
2018-05-03T15:33:19.896Z,135.57
2018-05-03T15:39:23.397Z,144.77
2018-05-03T15:45:26.954Z,136.70
2018-05-03T15:51:31.326Z,125.70
2018-05-03T15:57:35.516Z,142.10
2018-05-03T16:03:38.982Z,176.00
2018-05-03T16:09:42.468Z,197.33
2018-05-03T16:15:45.969Z,216.67
2018-05-03T16:21:49.501Z,232.27
2018-05-03T16:27:53.212Z,234.77
2018-05-03T16:33:57.475Z,235.33
2018-05-03T16:40:01.726Z,242.50
2018-05-03T16:46:05.218Z,235.70
2018-05-03T16:52:08.672Z,229.80
2018-05-03T16:58:12.107Z,232.17
2018-05-03T17:04:15.638Z,231.33
2018-05-03T17:10:19.771Z,222.43
2018-05-03T17:16:23.237Z,218.77
2018-05-03T17:22:26.793Z,210.17
2018-05-03T17:28:30.201Z,212.40
2018-05-03T17:34:33.706Z,201.50
2018-05-03T17:40:37.990Z,198.27
2018-05-03T17:46:42.390Z,190.73
2018-05-03T17:52:45.902Z,188.87
2018-05-03T17:58:49.376Z,183.47
2018-05-03T18:04:52.820Z,179.37
2018-05-03T18:10:57.070Z,175.73
2018-05-03T18:17:01.196Z,175.03
2018-05-03T18:23:04.609Z,172.53
2018-05-03T18:29:08.137Z,167.23
2018-05-03T18:35:11.730Z,158.43
2018-05-03T18:41:15.141Z,160.97
2018-05-03T18:47:19.357Z,154.90
2018-05-03T18:53:22.770Z,153.03
2018-05-03T18:59:26.945Z,148.33
2018-05-03T19:05:30.373Z,146.90
2018-05-03T19:11:34.636Z,145.50
2018-05-03T19:17:38.114Z,143.63
2018-05-03T19:23:41.670Z,142.57
2018-05-03T19:29:45.915Z,136.30
2018-05-03T19:35:50.188Z,137.90
2018-05-03T19:41:54.454Z,129.60
2018-05-03T19:47:58.725Z,132.37
2018-05-03T19:54:02.916Z,127.27
2018-05-03T20:00:06.446Z,130.63
2018-05-03T20:06:10.720Z,127.07
2018-05-03T20:12:14.880Z,121.73
2018-05-03T20:18:19.154Z,122.70
2018-05-03T20:24:23.340Z,121.20
2018-05-03T20:30:26.866Z,118.77
2018-05-03T20:36:31.134Z,115.57
2018-05-03T20:42:35.404Z,114.60
2018-05-03T20:48:38.900Z,113.00
2018-05-03T20:54:42.543Z,99.37
2018-05-03T21:00:45.976Z,97.47
2018-05-03T21:06:50.228Z,90.83
2018-05-03T21:12:54.363Z,126.23
2018-05-03T21:18:57.775Z,81.77
2018-05-03T21:25:01.294Z,55.03
2018-05-03T21:31:05.467Z,39.67
2018-05-03T21:37:09.630Z,36.53
2018-05-03T21:43:13.905Z,25.47
2018-05-03T21:49:18.118Z,29.37
2018-05-03T21:55:21.617Z,26.03
2018-05-03T22:01:25.103Z,13.57
2018-05-03T22:07:28.619Z,15.90
2018-05-03T22:13:32.173Z,10.13
2018-05-03T22:19:37.059Z,8.50
2018-05-03T22:25:41.229Z,7.93
2018-05-03T22:31:45.409Z,6.13
2018-05-03T22:37:49.599Z,7.43
2018-05-03T22:43:53.003Z,7.43
2018-05-03T22:49:57.192Z,9.37
2018-05-03T22:56:01.441Z,5.30
2018-05-03T23:02:05.713Z,6.97
2018-05-03T23:08:09.022Z,6.23
2018-05-03T23:14:12.361Z,7.27
2018-05-03T23:20:15.637Z,4.03
2018-05-03T23:26:18.912Z,6.03
2018-05-03T23:32:22.936Z,11.70
2018-05-03T23:38:26.212Z,6.57
2018-05-03T23:44:30.238Z,5.87
2018-05-03T23:50:33.514Z,6.67
2018-05-03T23:56:36.808Z,9.50
